Dortmund Airport EDLW

Flugplatz Daten

Name: Dortmund Airport

Ident: EDLW

Lat: 51,5182991

Long: 7,612239838

Platzhöhe: 425 ft

IataCode: DTM

City: Dortmund

Metar

2022/08/14 05:50
EDLW 140550Z 05004KT CAVOK 19/14 Q1011

Taf

2022/08/14 06:26
TAF EDLW 140500Z 1406/1506 VRB02KT CAVOK
BECMG 1406/1409 08006KT
BECMG 1501/1504 19006KT
Gewünschte Webcam nicht vorhanden? Dann fügen Sie eine hinzu. Sie wird dann so schnell wie möglich freigeschaltet
Url: Title: